createdAt,value
2019-03-30T00:01:01.113Z,11.83
2019-03-30T00:03:36.102Z,11.67
2019-03-30T00:06:07.937Z,12.20
2019-03-30T00:08:42.823Z,11.83
2019-03-30T00:11:13.871Z,13.07
2019-03-30T00:13:47.308Z,15.37
2019-03-30T00:16:19.143Z,11.27
2019-03-30T00:18:51.268Z,14.87
2019-03-30T00:21:27.806Z,14.77
2019-03-30T00:24:02.431Z,13.07
2019-03-30T00:26:33.821Z,12.97
2019-03-30T00:29:06.129Z,12.90
2019-03-30T00:31:45.230Z,13.20
2019-03-30T00:34:29.845Z,12.00
2019-03-30T00:37:10.527Z,12.57
2019-03-30T00:39:45.763Z,11.47
2019-03-30T00:42:22.613Z,14.30
2019-03-30T00:44:53.459Z,10.90
2019-03-30T00:47:24.429Z,13.87
2019-03-30T00:49:57.567Z,11.30
2019-03-30T00:55:28.016Z,11.93
2019-03-30T00:58:01.067Z,13.40
2019-03-30T01:00:36.329Z,13.20
2019-03-30T01:03:12.719Z,12.60
2019-03-30T01:05:44.740Z,12.73
2019-03-30T01:08:19.615Z,10.47
2019-03-30T01:10:52.244Z,11.50
2019-03-30T01:13:24.544Z,14.07
2019-03-30T01:15:55.767Z,11.23
2019-03-30T01:18:29.392Z,10.97
2019-03-30T01:21:02.845Z,11.83
2019-03-30T01:23:36.758Z,12.93
2019-03-30T01:26:10.985Z,10.63
2019-03-30T01:28:45.314Z,11.97
2019-03-30T01:31:29.909Z,9.93
2019-03-30T01:34:03.982Z,14.60
2019-03-30T01:36:36.959Z,12.53
2019-03-30T01:39:11.793Z,12.43
2019-03-30T01:41:45.337Z,11.30
2019-03-30T01:44:21.728Z,11.87
2019-03-30T01:46:53.024Z,12.33
2019-03-30T01:49:27.581Z,13.57
2019-03-30T01:52:01.906Z,12.37
2019-03-30T01:54:38.204Z,18.47
2019-03-30T01:57:11.921Z,11.90
2019-03-30T01:59:45.947Z,15.37
2019-03-30T02:02:17.168Z,13.97
2019-03-30T02:04:49.471Z,14.30
2019-03-30T02:07:22.821Z,12.70
2019-03-30T02:09:54.744Z,14.27
2019-03-30T02:12:27.714Z,12.53
2019-03-30T02:14:59.769Z,13.27
2019-03-30T02:17:32.523Z,13.67
2019-03-30T02:20:09.949Z,13.90
2019-03-30T02:22:41.794Z,13.50
2019-03-30T02:25:15.036Z,14.43
2019-03-30T02:27:49.472Z,13.47
2019-03-30T02:30:21.334Z,14.70
2019-03-30T02:32:55.192Z,15.03
2019-03-30T02:35:26.971Z,12.53
2019-03-30T02:38:01.682Z,15.13
2019-03-30T02:40:34.079Z,14.33
2019-03-30T02:43:06.620Z,13.30
2019-03-30T02:45:37.666Z,14.33
2019-03-30T02:48:10.876Z,14.93
2019-03-30T02:50:49.714Z,16.43
2019-03-30T02:53:15.751Z,15.43
2019-03-30T02:55:48.390Z,15.73
2019-03-30T02:58:23.105Z,14.43
2019-03-30T03:00:57.191Z,13.53
2019-03-30T03:03:32.780Z,14.67
2019-03-30T03:06:06.709Z,16.20
2019-03-30T03:08:41.122Z,17.60
2019-03-30T03:11:14.635Z,16.40
2019-03-30T03:13:48.843Z,17.13
2019-03-30T03:16:21.061Z,15.97
2019-03-30T03:18:53.358Z,14.53
2019-03-30T03:21:25.302Z,14.13
2019-03-30T03:23:58.703Z,14.20
2019-03-30T03:26:33.060Z,15.33
2019-03-30T03:29:06.650Z,15.03
2019-03-30T03:31:38.582Z,16.53
2019-03-30T03:34:15.012Z,14.67
2019-03-30T03:36:50.756Z,15.13
2019-03-30T03:39:26.485Z,16.87
2019-03-30T03:42:01.485Z,14.43
2019-03-30T03:44:47.741Z,17.83
2019-03-30T03:47:19.449Z,13.73
2019-03-30T03:49:52.798Z,17.43
2019-03-30T03:52:25.773Z,16.07
2019-03-30T03:54:57.033Z,13.97
2019-03-30T03:57:32.745Z,15.27
2019-03-30T04:00:08.166Z,15.30
2019-03-30T04:02:39.726Z,17.47
2019-03-30T04:05:11.923Z,15.03
2019-03-30T04:07:47.979Z,19.37
2019-03-30T04:10:21.748Z,16.37
2019-03-30T04:12:54.807Z,14.67
2019-03-30T04:15:29.660Z,19.70
2019-03-30T04:18:02.152Z,17.70
2019-03-30T04:20:36.950Z,17.63
2019-03-30T04:23:12.288Z,16.03
2019-03-30T04:25:44.258Z,16.10
2019-03-30T04:28:17.802Z,19.77
2019-03-30T04:30:50.569Z,19.20
2019-03-30T04:33:23.614Z,17.40
2019-03-30T04:35:54.407Z,17.03
2019-03-30T04:38:30.365Z,17.40
2019-03-30T04:41:04.764Z,17.97
2019-03-30T04:43:41.339Z,16.23
2019-03-30T04:46:15.402Z,17.40
2019-03-30T04:48:47.948Z,17.57
2019-03-30T04:51:19.773Z,17.73
2019-03-30T04:53:51.985Z,18.23
2019-03-30T04:56:26.113Z,22.30
2019-03-30T04:58:57.835Z,16.07
2019-03-30T05:01:29.918Z,27.90
2019-03-30T05:04:00.653Z,17.10
2019-03-30T05:06:31.902Z,17.10
2019-03-30T05:09:06.617Z,20.47
2019-03-30T05:11:38.622Z,15.27
2019-03-30T05:14:09.989Z,16.70
2019-03-30T05:16:50.212Z,16.40
2019-03-30T05:19:24.290Z,18.27
2019-03-30T05:22:12.094Z,16.37
2019-03-30T05:24:35.303Z,16.13
2019-03-30T05:27:07.161Z,19.43
2019-03-30T05:29:40.350Z,16.20
2019-03-30T05:32:17.143Z,17.00
2019-03-30T05:34:49.244Z,16.90
2019-03-30T05:37:24.278Z,16.03
2019-03-30T05:39:57.849Z,22.27
2019-03-30T05:42:28.633Z,20.37
2019-03-30T05:44:59.470Z,21.23
2019-03-30T05:47:32.154Z,19.30
2019-03-30T05:50:04.273Z,21.40
2019-03-30T05:52:36.704Z,21.20
2019-03-30T05:55:08.384Z,21.47
2019-03-30T05:57:40.349Z,20.33
2019-03-30T06:00:14.626Z,18.10
2019-03-30T06:02:50.206Z,18.90
2019-03-30T06:05:25.653Z,17.83
2019-03-30T06:08:00.835Z,22.03
2019-03-30T06:10:38.528Z,22.03
2019-03-30T06:13:12.445Z,18.50
2019-03-30T06:15:45.166Z,18.70
2019-03-30T06:18:16.984Z,19.17
2019-03-30T06:20:55.776Z,17.40
2019-03-30T06:23:27.694Z,20.17
2019-03-30T06:26:03.969Z,19.80
2019-03-30T06:28:51.427Z,19.80
2019-03-30T06:31:26.110Z,20.73
2019-03-30T06:34:01.777Z,22.03
2019-03-30T06:36:32.893Z,21.73
2019-03-30T06:39:07.375Z,18.47
2019-03-30T06:41:39.826Z,21.83
2019-03-30T06:44:10.566Z,18.83
2019-03-30T06:46:44.904Z,18.20
2019-03-30T06:49:16.530Z,19.77
2019-03-30T06:51:54.451Z,25.47
2019-03-30T06:54:27.804Z,20.13
2019-03-30T06:56:59.784Z,18.70
2019-03-30T06:59:31.194Z,19.87
2019-03-30T07:02:04.796Z,22.00
2019-03-30T07:04:37.350Z,21.17
2019-03-30T07:07:12.561Z,18.20
2019-03-30T07:09:58.842Z,22.73
2019-03-30T07:12:34.513Z,20.97
2019-03-30T07:15:08.543Z,20.93
2019-03-30T07:17:45.576Z,23.97
2019-03-30T07:20:29.958Z,20.73
2019-03-30T07:23:11.914Z,23.60
2019-03-30T07:25:38.728Z,24.63
2019-03-30T07:28:12.247Z,20.20
2019-03-30T07:30:48.993Z,19.20
2019-03-30T07:36:20.612Z,23.00
2019-03-30T07:38:52.960Z,16.73
2019-03-30T07:41:29.909Z,17.83
2019-03-30T07:44:01.111Z,21.30
2019-03-30T07:46:33.413Z,23.90
2019-03-30T07:49:04.964Z,20.37
2019-03-30T07:51:38.256Z,22.10
2019-03-30T07:54:11.580Z,22.27
2019-03-30T07:57:16.592Z,21.67
2019-03-30T07:59:41.092Z,21.43
2019-03-30T08:02:15.992Z,23.77
2019-03-30T08:04:49.543Z,23.43
2019-03-30T08:07:24.484Z,22.90
2019-03-30T08:09:59.513Z,21.47
2019-03-30T08:12:33.591Z,23.70
2019-03-30T08:15:10.760Z,24.93
2019-03-30T08:17:46.514Z,21.30
2019-03-30T08:20:18.274Z,23.67
2019-03-30T08:22:54.426Z,24.33
2019-03-30T08:25:29.262Z,26.97
2019-03-30T08:28:17.575Z,22.77
2019-03-30T08:30:53.270Z,22.67
2019-03-30T08:33:26.309Z,25.70
2019-03-30T08:36:02.537Z,20.73
2019-03-30T08:38:40.527Z,26.07
2019-03-30T08:41:17.177Z,29.50
2019-03-30T08:44:13.859Z,22.30
2019-03-30T08:46:47.528Z,25.20
2019-03-30T08:49:21.150Z,21.97
2019-03-30T08:51:57.642Z,26.67
2019-03-30T08:54:29.897Z,23.67
2019-03-30T08:57:02.802Z,24.60
2019-03-30T08:59:34.986Z,22.27
2019-03-30T09:02:07.529Z,22.53
2019-03-30T09:04:39.303Z,24.10
2019-03-30T09:07:13.100Z,22.37
2019-03-30T09:09:48.556Z,25.03
2019-03-30T09:12:25.482Z,21.70
2019-03-30T09:14:59.309Z,22.43
2019-03-30T09:17:38.987Z,23.10
2019-03-30T09:20:47.911Z,22.60
2019-03-30T09:23:47.882Z,23.93
2019-03-30T09:26:20.494Z,24.57
2019-03-30T09:29:02.180Z,23.07
2019-03-30T09:31:34.786Z,22.37
2019-03-30T09:34:11.332Z,22.77
2019-03-30T09:36:46.152Z,26.53
2019-03-30T09:39:17.734Z,23.60
2019-03-30T09:41:49.953Z,20.83
2019-03-30T09:44:21.825Z,22.90
2019-03-30T09:46:53.173Z,20.50
2019-03-30T09:49:31.743Z,20.83
2019-03-30T09:52:16.631Z,22.27
2019-03-30T09:54:53.117Z,20.87
2019-03-30T09:57:27.277Z,18.60
2019-03-30T10:00:01.004Z,20.57
2019-03-30T10:02:36.534Z,22.43
2019-03-30T10:05:08.825Z,19.17
2019-03-30T10:07:41.110Z,17.30
2019-03-30T10:10:15.137Z,18.27
2019-03-30T10:12:50.142Z,16.50
2019-03-30T10:15:21.182Z,16.93
2019-03-30T10:17:52.779Z,16.57
2019-03-30T10:20:23.376Z,21.67
2019-03-30T10:22:57.279Z,16.27
2019-03-30T10:25:30.611Z,19.23
2019-03-30T10:28:04.096Z,22.17
2019-03-30T10:30:49.875Z,16.30
2019-03-30T10:33:22.016Z,15.33
2019-03-30T10:35:53.700Z,13.90
2019-03-30T10:38:24.752Z,15.70
2019-03-30T10:44:06.445Z,16.03
2019-03-30T10:46:57.516Z,14.47
2019-03-30T10:49:39.823Z,14.73
2019-03-30T10:52:42.469Z,12.80
2019-03-30T10:55:45.648Z,15.90
2019-03-30T10:58:37.769Z,17.80
2019-03-30T11:01:24.194Z,18.07
2019-03-30T11:03:58.260Z,13.87
2019-03-30T11:06:34.775Z,17.30
2019-03-30T11:09:35.144Z,16.13
2019-03-30T11:12:11.788Z,20.40
2019-03-30T11:14:49.354Z,17.63
2019-03-30T11:17:23.662Z,17.50
2019-03-30T11:20:00.393Z,15.70
2019-03-30T11:22:33.387Z,20.67
2019-03-30T11:25:07.717Z,19.70
2019-03-30T11:27:43.520Z,16.17
2019-03-30T11:30:17.528Z,18.93
2019-03-30T11:32:51.640Z,14.17
2019-03-30T11:35:23.221Z,15.80
2019-03-30T11:37:54.458Z,15.33
2019-03-30T11:40:25.422Z,16.00
2019-03-30T11:42:57.615Z,12.50
2019-03-30T11:45:32.488Z,12.97
2019-03-30T11:48:10.404Z,17.37
2019-03-30T11:50:48.274Z,16.03
2019-03-30T11:53:24.579Z,12.10
2019-03-30T11:56:30.896Z,14.65
2019-03-30T11:59:46.060Z,18.83
2019-03-30T12:06:03.052Z,11.37
2019-03-30T12:08:42.930Z,15.08
2019-03-30T12:11:21.974Z,15.65
2019-03-30T12:13:57.463Z,16.97
2019-03-30T12:16:46.789Z,13.28
2019-03-30T12:19:22.857Z,13.43
2019-03-30T12:21:55.915Z,11.48
2019-03-30T12:24:29.708Z,12.53
2019-03-30T12:31:06.079Z,12.68
2019-03-30T12:33:53.617Z,13.55
2019-03-30T12:36:27.648Z,18.20
2019-03-30T12:39:07.543Z,12.30
2019-03-30T12:41:39.065Z,12.58
2019-03-30T12:44:10.388Z,9.23
2019-03-30T12:46:42.209Z,14.73
2019-03-30T12:49:15.373Z,11.10
2019-03-30T12:51:51.083Z,15.98
2019-03-30T12:54:29.671Z,13.22
2019-03-30T12:57:04.434Z,11.73
2019-03-30T12:59:39.390Z,16.02
2019-03-30T13:02:14.959Z,16.48
2019-03-30T13:04:48.536Z,24.02
2019-03-30T13:07:22.194Z,13.32
2019-03-30T13:09:55.829Z,12.93
2019-03-30T13:12:43.235Z,12.95
2019-03-30T13:15:15.077Z,13.22
2019-03-30T13:17:45.808Z,13.85
2019-03-30T13:20:20.021Z,13.83
2019-03-30T13:23:06.041Z,10.00
2019-03-30T13:25:41.187Z,11.05
2019-03-30T13:28:15.156Z,13.20
2019-03-30T13:30:47.789Z,12.90
2019-03-30T13:33:19.087Z,11.03
2019-03-30T13:35:50.495Z,15.15
2019-03-30T13:38:21.301Z,12.20
2019-03-30T13:40:57.643Z,14.73
2019-03-30T13:43:32.551Z,17.85
2019-03-30T13:46:04.827Z,14.83
2019-03-30T13:48:35.583Z,15.50
2019-03-30T13:51:11.627Z,12.35
2019-03-30T13:53:45.257Z,12.78
2019-03-30T13:56:23.147Z,11.33
2019-03-30T13:58:57.366Z,11.03
2019-03-30T14:01:30.411Z,14.30
2019-03-30T14:04:06.622Z,12.33
2019-03-30T14:06:38.479Z,10.78
2019-03-30T14:09:11.080Z,10.13
2019-03-30T14:11:42.593Z,11.10
2019-03-30T14:14:13.447Z,25.27
2019-03-30T14:16:45.045Z,10.50
2019-03-30T14:19:17.196Z,16.27
2019-03-30T14:21:50.657Z,8.78
2019-03-30T14:24:22.399Z,10.18
2019-03-30T14:26:53.567Z,13.03
2019-03-30T14:29:25.269Z,11.38
2019-03-30T14:31:56.484Z,14.00
2019-03-30T14:34:28.545Z,9.65
2019-03-30T14:37:00.353Z,12.20
2019-03-30T14:39:33.910Z,20.92
2019-03-30T14:42:05.469Z,10.40
2019-03-30T14:44:36.670Z,13.13
2019-03-30T14:47:11.360Z,9.75
2019-03-30T14:49:43.044Z,14.00
2019-03-30T14:52:14.105Z,12.75
2019-03-30T14:54:52.725Z,11.05
